createdAt,value
2019-02-16T00:01:10.152Z,5.10
2019-02-16T00:03:40.968Z,3.67
2019-02-16T00:06:11.803Z,3.60
2019-02-16T00:08:42.683Z,10.83
2019-02-16T00:11:13.396Z,8.23
2019-02-16T00:13:44.063Z,12.93
2019-02-16T00:16:14.802Z,5.00
2019-02-16T00:18:44.833Z,4.60
2019-02-16T00:21:15.693Z,7.07
2019-02-16T00:23:45.830Z,5.43
2019-02-16T00:26:16.564Z,6.10
2019-02-16T00:28:47.095Z,6.50
2019-02-16T00:31:17.445Z,2.93
2019-02-16T00:33:48.001Z,6.07
2019-02-16T00:36:18.061Z,8.70
2019-02-16T00:38:48.941Z,6.93
2019-02-16T00:41:19.631Z,12.13
2019-02-16T00:43:50.023Z,5.80
2019-02-16T00:46:20.434Z,10.40
2019-02-16T00:48:51.956Z,3.40
2019-02-16T00:51:22.289Z,9.03
2019-02-16T00:53:53.103Z,3.67
2019-02-16T00:56:23.355Z,5.30
2019-02-16T00:58:54.151Z,6.07
2019-02-16T01:01:24.216Z,4.63
2019-02-16T01:03:54.827Z,6.13
2019-02-16T01:06:25.719Z,3.50
2019-02-16T01:08:56.325Z,2.60
2019-02-16T01:11:27.572Z,7.17
2019-02-16T01:13:57.990Z,3.43
2019-02-16T01:16:28.431Z,4.67
2019-02-16T01:18:58.830Z,4.43
2019-02-16T01:21:29.304Z,5.70
2019-02-16T01:23:59.909Z,4.63
2019-02-16T01:26:30.388Z,5.63
2019-02-16T01:29:00.901Z,3.60
2019-02-16T01:31:31.890Z,6.27
2019-02-16T01:34:02.847Z,2.37
2019-02-16T01:36:33.763Z,3.33
2019-02-16T01:39:04.821Z,3.40
2019-02-16T01:41:36.132Z,2.57
2019-02-16T01:44:06.994Z,4.13
2019-02-16T01:46:37.523Z,5.20
2019-02-16T01:49:08.079Z,2.17
2019-02-16T01:51:38.576Z,2.60
2019-02-16T01:54:09.130Z,3.83
2019-02-16T01:56:39.409Z,3.73
2019-02-16T01:59:09.700Z,7.47
2019-02-16T02:01:40.416Z,4.97
2019-02-16T02:04:10.963Z,9.93
2019-02-16T02:06:41.301Z,4.30
2019-02-16T02:09:12.325Z,8.33
2019-02-16T02:11:43.509Z,2.37
2019-02-16T02:14:14.101Z,2.80
2019-02-16T02:16:44.085Z,3.87
2019-02-16T02:19:14.396Z,8.47
2019-02-16T02:21:45.307Z,10.10
2019-02-16T02:24:15.630Z,5.23
2019-02-16T02:26:45.965Z,4.90
2019-02-16T02:29:16.766Z,8.50
2019-02-16T02:31:47.317Z,8.37
2019-02-16T02:34:17.945Z,4.87
2019-02-16T02:36:48.474Z,5.43
2019-02-16T02:39:18.805Z,3.53
2019-02-16T02:41:49.630Z,4.53
2019-02-16T02:44:19.974Z,5.03
2019-02-16T02:46:50.236Z,2.80
2019-02-16T02:49:20.936Z,4.20
2019-02-16T02:51:52.429Z,3.27
2019-02-16T02:54:22.949Z,2.73
2019-02-16T02:56:53.768Z,4.70
2019-02-16T02:59:24.427Z,6.50
2019-02-16T03:01:55.252Z,2.77
2019-02-16T03:04:27.097Z,3.93
2019-02-16T03:06:57.806Z,3.20
2019-02-16T03:09:28.233Z,2.80
2019-02-16T03:12:02.436Z,7.80
2019-02-16T03:14:32.701Z,3.00
2019-02-16T03:17:03.522Z,3.17
2019-02-16T03:19:34.058Z,6.50
2019-02-16T03:22:05.008Z,4.63
2019-02-16T03:24:35.835Z,5.10
2019-02-16T03:27:18.938Z,3.73
2019-02-16T03:30:11.627Z,2.97
2019-02-16T03:33:08.643Z,1.97
2019-02-16T03:36:24.206Z,1.70
2019-02-16T03:39:15.880Z,5.70
2019-02-16T03:41:46.660Z,4.77
2019-02-16T03:44:17.336Z,1.23
2019-02-16T03:46:48.290Z,6.30
2019-02-16T03:49:18.837Z,2.50
2019-02-16T03:51:49.855Z,2.03
2019-02-16T03:54:20.620Z,5.47
2019-02-16T03:56:51.052Z,3.83
2019-02-16T03:59:21.984Z,14.20
2019-02-16T04:01:52.519Z,3.30
2019-02-16T04:04:22.773Z,2.73
2019-02-16T04:06:53.414Z,3.53
2019-02-16T04:09:24.270Z,2.37
2019-02-16T04:11:54.938Z,3.20
2019-02-16T04:14:25.628Z,4.10
2019-02-16T04:16:56.492Z,4.90
2019-02-16T04:19:26.640Z,5.10
2019-02-16T04:21:57.807Z,8.97
2019-02-16T04:24:29.772Z,12.73
2019-02-16T04:27:00.298Z,5.73
2019-02-16T04:29:30.626Z,3.17
2019-02-16T04:32:00.954Z,6.43
2019-02-16T04:34:31.676Z,3.53
2019-02-16T04:37:01.930Z,3.83
2019-02-16T04:39:32.678Z,7.10
2019-02-16T04:42:03.071Z,3.40
2019-02-16T04:44:34.365Z,9.17
2019-02-16T04:47:04.978Z,4.70
2019-02-16T04:49:35.735Z,3.87
2019-02-16T04:52:06.688Z,4.07
2019-02-16T04:54:37.396Z,4.47
2019-02-16T04:57:07.741Z,3.60
2019-02-16T04:59:38.955Z,8.73
2019-02-16T05:02:09.725Z,3.80
2019-02-16T05:04:40.143Z,2.20
2019-02-16T05:07:10.647Z,6.57
2019-02-16T05:09:41.414Z,1.50
2019-02-16T05:12:11.658Z,3.87
2019-02-16T05:14:41.936Z,3.27
2019-02-16T05:17:11.730Z,6.10
2019-02-16T05:19:41.922Z,1.67
2019-02-16T05:22:12.994Z,5.70
2019-02-16T05:24:43.381Z,2.63
2019-02-16T05:27:13.706Z,5.27
2019-02-16T05:29:44.641Z,4.43
2019-02-16T05:32:14.795Z,3.47
2019-02-16T05:34:45.058Z,4.70
2019-02-16T05:37:15.593Z,1.13
2019-02-16T05:39:46.011Z,5.10
2019-02-16T05:42:16.374Z,3.43
2019-02-16T05:44:46.358Z,3.10
2019-02-16T05:47:16.891Z,4.93
2019-02-16T05:49:47.807Z,5.37
2019-02-16T05:52:18.345Z,9.93
2019-02-16T05:54:48.897Z,4.73
2019-02-16T05:57:19.412Z,9.23
2019-02-16T05:59:49.892Z,16.70
2019-02-16T06:02:20.720Z,7.83
2019-02-16T06:04:50.739Z,3.17
2019-02-16T06:07:21.297Z,3.33
2019-02-16T06:09:52.179Z,2.17
2019-02-16T06:12:22.939Z,3.70
2019-02-16T06:14:53.557Z,3.07
2019-02-16T06:17:24.392Z,1.90
2019-02-16T06:19:55.139Z,3.03
2019-02-16T06:22:25.631Z,2.60
2019-02-16T06:24:55.803Z,4.37
2019-02-16T06:27:26.630Z,6.00
2019-02-16T06:29:56.461Z,1.70
2019-02-16T06:32:27.127Z,4.80
2019-02-16T06:35:08.872Z,3.00
2019-02-16T06:37:39.051Z,3.27
2019-02-16T06:40:10.089Z,3.17
2019-02-16T06:42:40.529Z,11.73
2019-02-16T06:45:11.706Z,4.03
2019-02-16T06:47:42.404Z,5.03
2019-02-16T06:50:13.049Z,2.97
2019-02-16T06:52:43.396Z,5.57
2019-02-16T06:55:13.397Z,4.33
2019-02-16T06:57:47.257Z,2.57
2019-02-16T07:00:20.640Z,3.23
2019-02-16T07:02:51.129Z,5.50
2019-02-16T07:05:21.286Z,2.60
2019-02-16T07:07:51.897Z,2.20
2019-02-16T07:10:22.972Z,3.13
2019-02-16T07:12:53.833Z,3.57
2019-02-16T07:15:24.774Z,4.57
2019-02-16T07:18:10.571Z,3.30
2019-02-16T07:20:41.521Z,4.00
2019-02-16T07:23:12.132Z,2.90
2019-02-16T07:25:42.976Z,4.07
2019-02-16T07:28:13.482Z,7.53
2019-02-16T07:30:43.622Z,4.37
2019-02-16T07:33:13.928Z,2.73
2019-02-16T07:35:44.202Z,6.17
2019-02-16T07:38:15.068Z,5.70
2019-02-16T07:40:45.360Z,5.13
2019-02-16T07:43:34.816Z,5.07
2019-02-16T07:46:11.788Z,9.60
2019-02-16T07:49:19.041Z,4.20
2019-02-16T07:52:10.812Z,5.10
2019-02-16T07:55:03.224Z,3.00
2019-02-16T07:58:01.704Z,6.27
2019-02-16T08:00:43.032Z,6.30
2019-02-16T08:03:37.806Z,4.63
2019-02-16T08:06:30.216Z,10.93
2019-02-16T08:09:10.662Z,7.90
2019-02-16T08:11:56.929Z,4.53
2019-02-16T08:14:37.126Z,6.60
2019-02-16T08:17:38.818Z,7.50
2019-02-16T08:20:28.016Z,7.53
2019-02-16T08:23:14.865Z,13.03
2019-02-16T08:26:04.199Z,10.83
2019-02-16T08:28:43.129Z,8.77
2019-02-16T08:31:20.823Z,7.60
2019-02-16T08:34:12.946Z,10.03
2019-02-16T08:37:04.502Z,7.90
2019-02-16T08:39:56.025Z,10.03
2019-02-16T08:42:51.153Z,12.17
2019-02-16T08:45:29.126Z,8.90
2019-02-16T08:48:18.196Z,8.20
2019-02-16T08:51:14.368Z,8.27
2019-02-16T08:53:51.929Z,8.50
2019-02-16T08:56:30.582Z,7.50
2019-02-16T08:59:23.116Z,7.73
2019-02-16T09:02:02.288Z,7.47
2019-02-16T09:04:45.885Z,7.63
2019-02-16T09:07:38.334Z,6.00
2019-02-16T09:10:22.565Z,9.13
2019-02-16T09:13:07.489Z,9.33
2019-02-16T09:15:58.992Z,8.23
2019-02-16T09:18:38.325Z,6.47
2019-02-16T09:21:26.113Z,7.57
2019-02-16T09:24:21.166Z,9.07
2019-02-16T09:27:25.404Z,9.07
2019-02-16T09:30:15.848Z,7.40
2019-02-16T09:33:05.287Z,8.77
2019-02-16T09:35:53.438Z,8.10
2019-02-16T09:38:42.543Z,12.63
2019-02-16T09:41:26.296Z,11.17
2019-02-16T09:44:24.479Z,11.73
2019-02-16T09:47:00.002Z,10.43
2019-02-16T09:49:59.525Z,8.83
2019-02-16T09:52:47.638Z,11.77
2019-02-16T09:55:27.373Z,8.93
2019-02-16T09:58:19.739Z,9.00
2019-02-16T10:01:02.634Z,10.23
2019-02-16T10:03:50.659Z,12.27
2019-02-16T10:06:46.339Z,13.80
2019-02-16T10:09:41.802Z,9.47
2019-02-16T10:12:31.258Z,15.23
2019-02-16T10:15:23.684Z,10.80
2019-02-16T10:18:19.423Z,11.20
2019-02-16T10:21:14.533Z,11.37
2019-02-16T10:24:02.613Z,10.83
2019-02-16T10:26:52.299Z,10.90
2019-02-16T10:29:29.067Z,10.00
2019-02-16T10:32:16.805Z,12.07
2019-02-16T10:34:52.268Z,14.63
2019-02-16T10:37:40.055Z,10.07
2019-02-16T10:40:35.275Z,8.80
2019-02-16T10:43:27.900Z,8.27
2019-02-16T10:46:19.867Z,11.27
2019-02-16T10:49:01.144Z,10.10
2019-02-16T10:52:02.077Z,9.00
2019-02-16T10:55:09.645Z,11.03
2019-02-16T10:57:50.361Z,11.70
2019-02-16T11:00:54.971Z,13.63
2019-02-16T11:03:45.598Z,13.00
2019-02-16T11:06:24.048Z,8.70
2019-02-16T11:09:04.403Z,7.93
2019-02-16T11:11:49.505Z,12.20
2019-02-16T11:14:29.183Z,14.33
2019-02-16T11:17:07.188Z,10.57
2019-02-16T11:20:09.306Z,9.10
2019-02-16T11:22:49.140Z,12.73
2019-02-16T11:25:47.115Z,8.03
2019-02-16T11:28:35.261Z,11.47
2019-02-16T11:31:30.824Z,10.27
2019-02-16T11:34:20.202Z,10.93
2019-02-16T11:36:58.737Z,10.80
2019-02-16T11:39:50.382Z,11.30
2019-02-16T11:42:43.162Z,11.23
2019-02-16T11:45:24.940Z,9.20
2019-02-16T11:48:07.300Z,14.27
2019-02-16T11:50:43.365Z,11.17
2019-02-16T11:53:29.594Z,13.87
2019-02-16T11:56:31.086Z,10.63
2019-02-16T11:59:26.858Z,14.00
2019-02-16T12:02:08.959Z,12.77
2019-02-16T12:04:46.100Z,11.17
2019-02-16T12:07:33.996Z,13.20
2019-02-16T12:10:19.303Z,13.37
2019-02-16T12:13:12.390Z,14.80
2019-02-16T12:16:20.017Z,14.57
2019-02-16T12:19:07.619Z,14.50
2019-02-16T12:21:42.722Z,9.90
2019-02-16T12:25:02.926Z,16.10
2019-02-16T12:27:36.910Z,13.20
2019-02-16T12:30:16.624Z,19.30
2019-02-16T12:32:56.485Z,10.73
2019-02-16T12:35:48.913Z,11.27
2019-02-16T12:38:27.596Z,13.40
2019-02-16T12:41:05.760Z,16.67
2019-02-16T12:43:56.127Z,13.43
2019-02-16T12:46:44.432Z,14.53
2019-02-16T12:49:37.936Z,10.30
2019-02-16T12:52:38.987Z,10.97
2019-02-16T12:55:31.166Z,12.60
2019-02-16T12:58:07.197Z,11.70
2019-02-16T13:00:47.165Z,11.47
2019-02-16T13:03:30.123Z,13.63
2019-02-16T13:06:21.731Z,14.40
2019-02-16T13:08:59.468Z,11.27
2019-02-16T13:11:49.199Z,11.60
2019-02-16T13:14:37.212Z,11.83
2019-02-16T13:17:28.085Z,13.40
2019-02-16T13:20:20.443Z,11.17
2019-02-16T13:22:57.039Z,12.00
2019-02-16T13:25:46.103Z,16.33
2019-02-16T13:28:38.475Z,12.37
2019-02-16T13:31:25.587Z,11.17
2019-02-16T13:34:13.901Z,13.30
2019-02-16T13:37:06.374Z,17.67
2019-02-16T13:39:58.930Z,12.87
2019-02-16T13:42:48.121Z,13.70
2019-02-16T13:45:27.711Z,11.87
2019-02-16T13:48:06.494Z,13.40
2019-02-16T13:50:49.217Z,14.37
2019-02-16T13:53:30.329Z,11.63
2019-02-16T13:56:11.768Z,15.40
2019-02-16T13:58:56.307Z,9.80
2019-02-16T14:01:48.389Z,11.50
2019-02-16T14:04:44.743Z,13.00
2019-02-16T14:07:43.131Z,13.50
2019-02-16T14:10:30.655Z,13.30
2019-02-16T14:13:32.149Z,12.90
2019-02-16T14:16:24.626Z,13.57
2019-02-16T14:18:55.178Z,11.07
2019-02-16T14:21:25.703Z,21.73
2019-02-16T14:23:56.503Z,16.93
2019-02-16T14:26:26.896Z,14.20
2019-02-16T14:28:57.475Z,13.13
2019-02-16T14:31:28.661Z,11.83
2019-02-16T14:33:58.957Z,11.97
2019-02-16T14:36:29.553Z,12.90
2019-02-16T14:39:09.559Z,10.87
2019-02-16T14:41:39.811Z,11.10
2019-02-16T14:44:10.339Z,18.90
2019-02-16T14:46:40.921Z,11.63
2019-02-16T14:49:11.556Z,13.07
2019-02-16T14:51:42.078Z,12.40
2019-02-16T14:54:12.325Z,14.43
2019-02-16T14:56:42.926Z,15.97
2019-02-16T14:59:13.609Z,12.00
2019-02-16T15:01:44.589Z,12.23
2019-02-16T15:04:15.129Z,11.87
2019-02-16T15:06:45.670Z,15.10
2019-02-16T15:09:16.563Z,11.03
2019-02-16T15:11:46.937Z,15.40
2019-02-16T15:14:17.753Z,14.67
2019-02-16T15:16:48.566Z,16.33
2019-02-16T15:19:18.589Z,12.50
2019-02-16T15:21:49.519Z,13.87
2019-02-16T15:24:20.041Z,12.47
2019-02-16T15:26:50.295Z,12.00
2019-02-16T15:29:22.162Z,13.80
2019-02-16T15:31:52.221Z,16.73
2019-02-16T15:34:22.590Z,11.70
2019-02-16T15:36:53.417Z,12.07
2019-02-16T15:39:24.208Z,15.47
2019-02-16T15:41:54.951Z,15.30
2019-02-16T15:44:25.834Z,15.50
2019-02-16T15:46:56.772Z,14.30
2019-02-16T15:49:27.249Z,12.60
2019-02-16T15:51:57.597Z,11.30
2019-02-16T15:54:27.604Z,13.60
2019-02-16T15:56:58.137Z,16.87
2019-02-16T15:59:35.022Z,12.43
2019-02-16T16:02:00.541Z,10.87
2019-02-16T16:04:31.097Z,10.97
2019-02-16T16:07:02.930Z,15.90
2019-02-16T16:09:38.947Z,13.27
2019-02-16T16:12:27.963Z,17.60
2019-02-16T16:15:09.173Z,18.63
2019-02-16T16:17:50.069Z,13.73
2019-02-16T16:20:30.485Z,14.43
2019-02-16T16:23:24.921Z,10.67
2019-02-16T16:26:19.721Z,12.03
2019-02-16T16:29:05.159Z,14.33
2019-02-16T16:31:44.167Z,16.10
2019-02-16T16:34:22.297Z,14.80
2019-02-16T16:37:14.169Z,12.30
2019-02-16T16:40:07.107Z,12.40
2019-02-16T16:42:56.282Z,12.03
2019-02-16T16:45:43.306Z,13.93
2019-02-16T16:48:35.147Z,16.33
2019-02-16T16:51:42.482Z,14.93
2019-02-16T16:54:21.610Z,16.27
2019-02-16T16:57:23.178Z,12.37
2019-02-16T17:00:03.530Z,13.67
2019-02-16T17:02:53.414Z,11.90
2019-02-16T17:05:48.386Z,17.23
2019-02-16T17:08:43.978Z,12.43
2019-02-16T17:11:39.426Z,14.63
2019-02-16T17:14:34.906Z,16.00
2019-02-16T17:17:20.934Z,13.47
2019-02-16T17:20:09.870Z,13.20
2019-02-16T17:22:48.337Z,12.40
2019-02-16T17:25:42.025Z,8.90
2019-02-16T17:28:22.976Z,12.63
2019-02-16T17:31:01.459Z,11.03
2019-02-16T17:33:47.879Z,19.67
2019-02-16T17:36:30.706Z,13.13
2019-02-16T17:39:20.034Z,9.10
2019-02-16T17:41:58.170Z,14.10
2019-02-16T17:44:45.590Z,11.30
2019-02-16T17:47:34.744Z,12.20
2019-02-16T17:50:15.234Z,16.33
2019-02-16T17:53:01.716Z,13.33
2019-02-16T17:55:40.281Z,20.37
2019-02-16T17:58:35.767Z,15.27
2019-02-16T18:01:17.538Z,10.37
2019-02-16T18:04:18.923Z,16.80
2019-02-16T18:07:06.871Z,9.40
2019-02-16T18:09:55.618Z,10.20
2019-02-16T18:12:49.165Z,17.27
2019-02-16T18:15:47.755Z,15.60
2019-02-16T18:18:28.553Z,10.70
2019-02-16T18:21:21.079Z,12.83
2019-02-16T18:24:12.951Z,12.93
2019-02-16T18:27:03.581Z,9.53
2019-02-16T18:29:51.789Z,9.77
2019-02-16T18:32:41.593Z,13.33
2019-02-16T18:35:34.082Z,10.73
2019-02-16T18:38:20.304Z,12.87
2019-02-16T18:41:01.748Z,12.10
2019-02-16T18:43:40.629Z,16.90
2019-02-16T18:46:28.476Z,12.07
2019-02-16T18:49:08.194Z,7.30
2019-02-16T18:51:57.315Z,10.10
2019-02-16T18:54:37.321Z,8.93
2019-02-16T18:57:44.832Z,19.77
2019-02-16T19:00:35.760Z,12.53
2019-02-16T19:03:21.765Z,12.53
2019-02-16T19:06:13.969Z,13.63
2019-02-16T19:08:54.947Z,15.53
2019-02-16T19:11:34.013Z,15.10
2019-02-16T19:14:25.539Z,10.50
2019-02-16T19:17:15.918Z,12.90
2019-02-16T19:20:04.841Z,14.20
2019-02-16T19:22:56.929Z,22.87
2019-02-16T19:25:34.942Z,17.87
2019-02-16T19:28:12.447Z,14.30
2019-02-16T19:31:00.372Z,16.60
2019-02-16T19:33:46.258Z,15.43
2019-02-16T19:36:21.293Z,20.53
2019-02-16T19:39:06.950Z,19.50
2019-02-16T19:41:51.414Z,14.53
2019-02-16T19:44:47.726Z,10.50
2019-02-16T19:47:40.550Z,8.10
2019-02-16T19:50:36.590Z,17.60
2019-02-16T19:53:44.048Z,9.07
2019-02-16T19:56:48.782Z,12.93
2019-02-16T19:59:37.219Z,24.13
2019-02-16T20:02:24.913Z,12.33
2019-02-16T20:05:20.531Z,6.87
2019-02-16T20:08:08.910Z,12.83
2019-02-16T20:10:57.610Z,9.80
2019-02-16T20:13:36.490Z,11.60
2019-02-16T20:16:18.235Z,10.63
2019-02-16T20:19:11.068Z,10.30
2019-02-16T20:21:55.183Z,8.37
2019-02-16T20:24:42.164Z,10.20
2019-02-16T20:27:37.285Z,8.03
2019-02-16T20:30:24.508Z,8.93
2019-02-16T20:33:12.303Z,17.63
2019-02-16T20:35:53.599Z,24.10
2019-02-16T20:38:42.665Z,10.40
2019-02-16T20:41:31.808Z,11.30
2019-02-16T20:44:30.475Z,7.00
2019-02-16T20:47:07.254Z,8.90
2019-02-16T20:50:03.000Z,12.23
2019-02-16T20:53:10.324Z,9.77
2019-02-16T20:55:58.408Z,14.20
2019-02-16T20:58:51.486Z,13.73
2019-02-16T21:01:39.428Z,8.23
2019-02-16T21:04:31.941Z,13.40
2019-02-16T21:07:14.006Z,18.20
2019-02-16T21:09:59.009Z,12.47
2019-02-16T21:13:03.598Z,22.30
2019-02-16T21:16:04.872Z,9.90
2019-02-16T21:18:45.048Z,17.23
2019-02-16T21:21:33.358Z,13.47
2019-02-16T21:24:21.505Z,13.77
2019-02-16T21:27:06.627Z,8.43
2019-02-16T21:29:46.073Z,9.50
2019-02-16T21:32:44.540Z,8.77
2019-02-16T21:35:33.899Z,15.70
2019-02-16T21:38:11.337Z,9.50
2019-02-16T21:41:03.888Z,7.47
2019-02-16T21:43:53.000Z,21.40
2019-02-16T21:46:52.700Z,6.47
2019-02-16T21:49:34.093Z,10.70
2019-02-16T21:52:29.513Z,13.47
2019-02-16T21:55:17.109Z,14.27
2019-02-16T21:58:08.397Z,12.83
2019-02-16T22:00:48.320Z,15.70
2019-02-16T22:03:34.913Z,10.83
2019-02-16T22:06:24.383Z,17.90
2019-02-16T22:09:16.354Z,11.20
2019-02-16T22:12:05.191Z,12.07
2019-02-16T22:14:35.874Z,8.87
2019-02-16T22:17:06.504Z,9.57
2019-02-16T22:19:37.677Z,7.93
2019-02-16T22:22:08.725Z,15.37
2019-02-16T22:24:39.613Z,12.67
2019-02-16T22:27:09.879Z,21.80
2019-02-16T22:29:40.039Z,10.50
2019-02-16T22:32:11.021Z,8.57
2019-02-16T22:34:41.349Z,14.00
2019-02-16T22:37:11.575Z,9.20
2019-02-16T22:39:41.962Z,10.53
2019-02-16T22:42:12.904Z,8.63
2019-02-16T22:44:43.576Z,12.47
2019-02-16T22:47:14.396Z,8.00
2019-02-16T22:49:44.911Z,8.13
2019-02-16T22:52:15.194Z,11.73
2019-02-16T22:54:45.397Z,10.83
2019-02-16T22:57:15.925Z,11.50
2019-02-16T22:59:46.384Z,8.40
2019-02-16T23:02:17.384Z,10.70
2019-02-16T23:04:48.051Z,8.17
2019-02-16T23:07:18.934Z,12.00
2019-02-16T23:09:49.403Z,8.67
2019-02-16T23:12:21.531Z,10.77
2019-02-16T23:14:51.999Z,12.30
2019-02-16T23:17:22.444Z,8.37
2019-02-16T23:19:53.022Z,13.87
2019-02-16T23:22:23.791Z,7.33
2019-02-16T23:24:54.798Z,9.10
2019-02-16T23:27:24.970Z,9.80
2019-02-16T23:29:55.712Z,14.63
2019-02-16T23:32:26.307Z,14.13
2019-02-16T23:34:57.173Z,11.40
2019-02-16T23:37:27.529Z,24.20
2019-02-16T23:39:57.929Z,10.53
2019-02-16T23:42:28.409Z,13.40
2019-02-16T23:44:58.889Z,13.93
2019-02-16T23:47:29.149Z,10.30
2019-02-16T23:49:59.829Z,9.10
2019-02-16T23:52:30.343Z,13.43
2019-02-16T23:55:01.388Z,10.30
2019-02-16T23:57:32.186Z,6.60
